This is the latest recevied weather packets stored in our database for station/object C31FR-13. If no packets are shown the sender has not sent any weather packets the latest 10 day(s).
| Time | Temp. | Humidity | Pressure | Rain* | Wind** | Luminosity | Snow |
|---|---|---|---|---|---|---|---|
| 1777443963 | 13.33° C | 63% | 1013.3 hPa | - | - | - | - |
| 1777443663 | 13.33° C | 65% | 1013.3 hPa | - | - | - | - |
| 1777443363 | 12.78° C | 67% | 1013.3 hPa | - | - | - | - |
| 1777442762 | 12.78° C | 64% | 1013.3 hPa | - | - | - | - |
| 1777442462 | 13.33° C | 64% | 1013.3 hPa | - | - | - | - |
| 1777442163 | 13.33° C | 64% | 1013.3 hPa | - | - | - | - |
| 1777441862 | 13.33° C | 65% | 1013.3 hPa | - | - | - | - |
| 1777441563 | 12.78° C | 66% | 1013.3 hPa | - | - | - | - |
| 1777441263 | 12.78° C | 66% | 1013.2 hPa | - | - | - | - |
| 1777440962 | 12.78° C | 65% | 1013.1 hPa | - | - | - | - |
| 1777440662 | 12.78° C | 66% | 1013 hPa | - | - | - | - |
| 1777440365 | 12.78° C | 66% | 1013 hPa | - | - | - | - |
| 1777440063 | 12.78° C | 67% | 1013 hPa | - | - | - | - |
| 1777439463 | 12.78° C | 67% | 1013 hPa | - | - | - | - |
| 1777439163 | 12.78° C | 68% | 1012.9 hPa | - | - | - | - |
| 1777438862 | 13.33° C | 67% | 1012.9 hPa | - | - | - | - |
| 1777438263 | 13.33° C | 67% | 1012.9 hPa | - | - | - | - |
| 1777437662 | 12.78° C | 69% | 1013 hPa | - | - | - | - |
| 1777437063 | 12.78° C | 66% | 1013 hPa | - | - | - | - |
| 1777436163 | 13.33° C | 65% | 1013 hPa | - | - | - | - |
| 1777434963 | 13.89° C | 65% | 1013.1 hPa | - | - | - | - |
| 1777434063 | 13.89° C | 65% | 1013.2 hPa | - | - | - | - |
| 1777425962 | 14.44° C | 62% | 1013.8 hPa | - | - | - | - |
| 1777414562 | 15.56° C | 59% | 1013.7 hPa | - | - | - | - |
| 1777413363 | 15.56° C | 55% | 1013.9 hPa | - | - | - | - |
* Rain since midnight (hover to see other rain measurements)
** Current wind speed in m/s (hover to see current wind gust speed)